KBKD

Details ICAO KBKD (BKD)
Name STEPHENS CO
Region United States
Timezone America/Chicago (UTC-6.0)
Plans Departing 3
Arriving 1
Stats Elevation 1,284 ft / 391 m (AMSL)
Location 32.718361° -98.891830°
Runways 3
Magnetic Variation 4.519° E
Sunrise 2017-12-14 13:31:21 UTC / 2017-12-14 07:31:21 Local
Sunset 2017-12-14 23:32:12 UTC / 2017-12-14 17:32:12 Local
Advertisement - Login to hide

Runways

ID Width Length Bearing (true) Bearing (mag) Surface Threshold Offset Overrun Length
04 50 ft / 15 m 2,400 ft / 731 m 44.52° 40.00° Asphalt 0 ft / 0 m 0 ft / 0 m
13 50 ft / 15 m 2,400 ft / 732 m 134.75° 130.23° Asphalt 0 ft / 0 m 0 ft / 0 m
17 100 ft / 30 m 5,013 ft / 1,528 m 179.63° 175.11° Asphalt 0 ft / 0 m 0 ft / 0 m
22 50 ft / 15 m 2,400 ft / 731 m 224.52° 220.00° Asphalt 0 ft / 0 m 0 ft / 0 m
31 50 ft / 15 m 2,400 ft / 732 m 314.75° 310.23° Asphalt 0 ft / 0 m 0 ft / 0 m
35 100 ft / 30 m 5,013 ft / 1,528 m 359.63° 355.11° Asphalt 0 ft / 0 m 0 ft / 0 m

Map

Weather


0- 5 10 15 20 25 30 35+ Temperature / ° C

Clouds and Precipitation
Forecast for 2017-12-14 18:00 UTC. Updated 2 hours ago

Ground ~20,000 ft ~40,000 ft Winds

METAR

KBKD 141455Z AUTO 36004KT 10SM CLR 04/M04 A3009 RMK AO2 T00431043

TAF

Not found

Frequencies

Unicom 122.80 MHz CTAF/UNICOM
Warning: Do not use this data for real-world aviation or navigation. No guarantee of current accuracy is given.